Time;durP1;ratioP1;P1;durP2;ratioP2;P2;SDS_P1;SDS_P2;PMS_P1;PMS_P2;Temp;Humidity;BMP_temperature;BMP_pressure;BME280_temperature;BME280_humidity;BME280_pressure;Samples;Min_cycle;Max_cycle;Signal;HPM_P1;HPM_P2
2023/08/04 00:02:14;;;;;;;2.42;0.85;;;15.30;1.00;;;;;;7393245;19;20021;-66
2023/08/04 00:04:44;;;;;;;2.42;1.17;;;15.30;1.00;;;;;;7395914;19;20407;-67
2023/08/04 00:07:14;;;;;;;3.47;0.93;;;15.20;1.00;;;;;;7394167;19;20122;-67
2023/08/04 00:09:44;;;;;;;2.42;0.90;;;15.30;1.00;;;;;;7396715;19;20019;-65
2023/08/04 00:12:14;;;;;;;2.65;1.20;;;15.40;1.00;;;;;;7393887;19;20514;-66
2023/08/04 00:14:44;;;;;;;1.55;1.00;;;15.30;1.00;;;;;;7392618;19;20021;-66
2023/08/04 00:17:16;;;;;;;3.88;1.30;;;15.30;1.00;;;;;;7393396;19;20026;-67
2023/08/04 00:19:46;;;;;;;1.90;0.88;;;15.30;1.00;;;;;;7396151;19;20037;-66
2023/08/04 00:22:16;;;;;;;3.20;1.35;;;15.30;1.00;;;;;;7393829;19;20096;-66
2023/08/04 00:24:49;;;;;;;1.73;1.15;;;15.30;1.00;;;;;;7393713;19;20078;-66
2023/08/04 00:27:19;;;;;;;2.15;0.90;;;15.30;1.00;;;;;;7393119;19;20493;-67
2023/08/04 00:29:49;;;;;;;3.00;1.23;;;15.40;1.00;;;;;;7395476;19;20014;-67
2023/08/04 00:32:22;;;;;;;1.45;0.90;;;15.30;1.00;;;;;;7397920;19;20010;-67
2023/08/04 00:34:52;;;;;;;4.95;1.20;;;15.20;1.00;;;;;;7397213;19;20034;-66
2023/08/04 00:37:22;;;;;;;2.03;0.90;;;15.10;1.00;;;;;;7397479;19;20387;-66
2023/08/04 00:39:52;;;;;;;2.22;1.02;;;15.10;1.00;;;;;;7395152;19;20494;-67
2023/08/04 00:42:22;;;;;;;4.95;1.00;;;15.10;1.00;;;;;;7392638;19;20019;-67
2023/08/04 00:44:52;;;;;;;2.65;1.00;;;15.10;1.00;;;;;;7394877;19;20015;-68
2023/08/04 00:47:25;;;;;;;3.65;1.00;;;15.00;1.00;;;;;;7397656;19;20006;-67
2023/08/04 00:49:56;;;;;;;1.98;1.10;;;15.00;1.00;;;;;;7395361;19;20037;-67
2023/08/04 00:52:26;;;;;;;4.07;1.30;;;15.00;1.00;;;;;;7391593;19;20032;-67
2023/08/04 00:54:56;;;;;;;4.10;1.20;;;15.00;1.00;;;;;;7391100;19;20014;-65
2023/08/04 00:57:27;;;;;;;5.30;1.30;;;15.00;1.00;;;;;;7390209;19;20074;-66
2023/08/04 00:59:58;;;;;;;1.33;1.00;;;15.00;1.00;;;;;;7392922;19;20685;-66
2023/08/04 01:02:30;;;;;;;2.88;0.98;;;15.00;1.00;;;;;;7386723;19;20031;-66
2023/08/04 01:05:01;;;;;;;1.58;1.00;;;15.00;1.00;;;;;;7388926;19;20492;-67
2023/08/04 01:07:38;;;;;;;4.47;1.55;;;15.00;1.00;;;;;;7390205;19;20021;-67
2023/08/04 01:10:14;;;;;;;4.82;1.48;;;15.00;1.00;;;;;;7392351;19;20097;-66
2023/08/04 01:12:52;;;;;;;7.75;2.53;;;15.00;1.00;;;;;;7388965;19;20035;-67
2023/08/04 01:15:25;;;;;;;3.30;1.60;;;15.00;1.00;;;;;;7392351;19;20074;-67
2023/08/04 01:17:59;;;;;;;4.45;1.38;;;15.00;1.00;;;;;;7392342;19;20073;-66
2023/08/04 01:20:30;;;;;;;7.10;1.50;;;14.90;1.00;;;;;;7392613;19;20006;-66
2023/08/04 01:23:02;;;;;;;6.38;1.65;;;14.90;1.00;;;;;;7393341;19;20030;-67
2023/08/04 01:25:36;;;;;;;2.58;1.45;;;14.90;1.00;;;;;;7393121;19;20006;-67
2023/08/04 01:28:10;;;;;;;3.70;1.20;;;14.90;1.00;;;;;;7392396;19;20120;-66
2023/08/04 01:30:42;;;;;;;1.88;1.27;;;14.80;1.00;;;;;;7391101;19;20153;-67
2023/08/04 01:33:12;;;;;;;2.53;1.40;;;14.70;1.00;;;;;;7390900;19;20499;-66
2023/08/04 01:35:42;;;;;;;5.00;1.80;;;14.80;1.00;;;;;;7388484;19;20078;-66
2023/08/04 01:38:15;;;;;;;2.13;1.40;;;14.80;1.00;;;;;;7387507;19;20018;-66
2023/08/04 01:40:45;;;;;;;4.72;1.70;;;14.80;1.00;;;;;;7383068;19;20533;-66
2023/08/04 01:43:15;;;;;;;6.32;1.42;;;14.80;1.00;;;;;;7384669;19;20010;-66
2023/08/04 01:45:45;;;;;;;3.70;1.70;;;14.80;1.00;;;;;;7386605;19;20375;-65
2023/08/04 01:48:15;;;;;;;3.95;2.10;;;14.80;1.00;;;;;;7387148;19;20018;-66
2023/08/04 01:50:45;;;;;;;3.30;2.33;;;14.80;1.00;;;;;;7389116;19;20010;-66
2023/08/04 01:53:17;;;;;;;3.95;1.85;;;14.80;1.00;;;;;;7249997;19;2742878;-66
2023/08/04 01:55:50;;;;;;;4.78;1.85;;;15.00;1.00;;;;;;7389637;19;20014;-66
2023/08/04 01:58:20;;;;;;;3.88;1.60;;;14.80;1.00;;;;;;7389569;19;20482;-67
2023/08/04 02:00:50;;;;;;;4.35;1.75;;;14.90;1.00;;;;;;7389265;19;20027;-66
2023/08/04 02:03:20;;;;;;;4.32;1.50;;;14.90;1.00;;;;;;7391656;19;20082;-66
2023/08/04 02:05:51;;;;;;;1.88;1.20;;;14.90;1.00;;;;;;7389146;19;20011;-67
2023/08/04 02:08:23;;;;;;;3.58;1.30;;;14.90;1.00;;;;;;7389406;19;20014;-67
2023/08/04 02:10:54;;;;;;;2.13;1.13;;;15.10;1.00;;;;;;7389287;19;20082;-67
2023/08/04 02:13:23;;;;;;;2.33;1.20;;;15.10;1.00;;;;;;7390774;19;20014;-67
2023/08/04 02:15:53;;;;;;;2.20;1.02;;;15.20;1.00;;;;;;7393751;19;20085;-67
2023/08/04 02:18:23;;;;;;;4.15;1.38;;;15.10;1.00;;;;;;7390799;19;20027;-67
2023/08/04 02:20:53;;;;;;;1.88;1.08;;;15.10;1.00;;;;;;7393384;19;20522;-66
2023/08/04 02:23:26;;;;;;;3.03;1.40;;;15.10;1.00;;;;;;7393897;19;20013;-67
2023/08/04 02:25:56;;;;;;;3.00;1.20;;;15.10;1.00;;;;;;7393036;19;20474;-67
2023/08/04 02:28:25;;;;;;;3.10;1.10;;;15.20;1.00;;;;;;7392176;19;20010;-67
2023/08/04 02:30:55;;;;;;;2.97;1.20;;;15.20;1.00;;;;;;7391308;19;20016;-66
2023/08/04 02:33:25;;;;;;;2.22;1.23;;;15.10;1.00;;;;;;7393365;19;20018;-67
2023/08/04 02:36:01;;;;;;;3.88;1.20;;;15.10;1.00;;;;;;7392655;19;20360;-66
2023/08/04 02:38:34;;;;;;;4.32;1.20;;;15.20;1.00;;;;;;7391809;19;20505;-66
2023/08/04 02:41:05;;;;;;;3.22;1.10;;;15.30;1.00;;;;;;7390923;19;20015;-67
2023/08/04 02:43:35;;;;;;;2.58;1.00;;;15.20;1.00;;;;;;7392220;19;20478;-67
2023/08/04 02:46:05;;;;;;;3.28;1.30;;;15.20;1.00;;;;;;7392368;19;20085;-66
2023/08/04 02:48:35;;;;;;;3.80;1.27;;;15.20;1.00;;;;;;7391913;19;20069;-66
2023/08/04 02:51:07;;;;;;;1.63;0.90;;;15.30;1.00;;;;;;7391231;19;20018;-67
2023/08/04 02:53:42;;;;;;;2.10;1.23;;;15.20;1.00;;;;;;7391815;19;20081;-66
2023/08/04 02:56:13;;;;;;;2.38;1.00;;;15.20;1.00;;;;;;7392542;19;20015;-67
2023/08/04 02:58:44;;;;;;;7.65;1.02;;;15.20;1.00;;;;;;7391561;19;20018;-67
2023/08/04 03:01:15;;;;;;;1.98;1.15;;;15.20;1.00;;;;;;7391522;19;20007;-66
2023/08/04 03:03:45;;;;;;;3.10;1.40;;;15.30;1.00;;;;;;7392376;19;20657;-66
2023/08/04 03:06:15;;;;;;;3.65;1.48;;;15.30;1.00;;;;;;7392500;19;20082;-66
2023/08/04 03:08:48;;;;;;;3.67;1.70;;;15.30;1.00;;;;;;7388404;19;20059;-66
2023/08/04 03:11:18;;;;;;;3.40;1.40;;;15.20;1.00;;;;;;7391133;19;20014;-67
2023/08/04 03:13:48;;;;;;;5.05;1.52;;;15.10;1.00;;;;;;7390699;19;20033;-66
2023/08/04 03:16:18;;;;;;;2.70;1.33;;;15.10;1.00;;;;;;7391961;19;20507;-67
2023/08/04 03:18:48;;;;;;;4.40;1.45;;;15.00;1.00;;;;;;7389371;19;20018;-65
2023/08/04 03:21:18;;;;;;;2.80;1.40;;;15.00;1.00;;;;;;7389865;19;20090;-70
2023/08/04 03:23:50;;;;;;;3.92;1.38;;;15.10;1.00;;;;;;7391966;19;20011;-71
2023/08/04 03:26:20;;;;;;;2.47;1.17;;;15.10;1.00;;;;;;7394555;19;20351;-70
2023/08/04 03:28:50;;;;;;;2.42;1.20;;;15.10;1.00;;;;;;7397843;19;20019;-70
2023/08/04 03:31:20;;;;;;;4.40;1.67;;;15.10;1.00;;;;;;7395159;19;20425;-70
2023/08/04 03:33:50;;;;;;;3.83;1.38;;;15.20;1.00;;;;;;7398640;19;20042;-70
2023/08/04 03:36:20;;;;;;;6.32;1.85;;;15.20;1.00;;;;;;7397937;19;20086;-70
2023/08/04 03:38:53;;;;;;;4.18;1.60;;;15.20;1.00;;;;;;7397246;19;20018;-70
2023/08/04 03:41:23;;;;;;;2.88;1.50;;;15.20;1.00;;;;;;7396431;19;20091;-70
2023/08/04 03:43:52;;;;;;;1.70;1.30;;;15.00;1.00;;;;;;7399093;19;20082;-70
2023/08/04 03:46:22;;;;;;;2.03;1.50;;;14.90;1.00;;;;;;7398405;19;20011;-70
2023/08/04 03:48:52;;;;;;;2.70;1.30;;;15.00;1.00;;;;;;7396799;19;20025;-70
2023/08/04 03:51:25;;;;;;;4.00;1.58;;;15.00;1.00;;;;;;7396583;19;20006;-70
2023/08/04 03:53:57;;;;;;;2.85;1.50;;;15.00;1.00;;;;;;7398867;19;20482;-70
2023/08/04 03:56:27;;;;;;;4.40;1.48;;;15.10;1.00;;;;;;7398065;19;20038;-70
2023/08/04 03:58:57;;;;;;;1.90;1.27;;;15.10;1.00;;;;;;7396084;19;20078;-70
2023/08/04 04:01:27;;;;;;;2.35;1.25;;;15.20;1.00;;;;;;7395836;19;20010;-70
2023/08/04 04:03:57;;;;;;;5.03;1.40;;;15.30;1.00;;;;;;7398591;19;20017;-70
2023/08/04 04:06:27;;;;;;;2.72;1.27;;;15.40;1.00;;;;;;7398455;19;20015;-69
2023/08/04 04:09:00;;;;;;;5.05;1.10;;;15.40;1.00;;;;;;7395784;19;20007;-70
2023/08/04 04:11:30;;;;;;;3.67;1.42;;;15.30;1.00;;;;;;7394902;19;20020;-70
2023/08/04 04:14:00;;;;;;;3.75;1.52;;;15.30;1.00;;;;;;7398212;19;20012;-70
2023/08/04 04:16:30;;;;;;;2.58;1.30;;;15.40;1.00;;;;;;7397625;19;20014;-70
2023/08/04 04:19:02;;;;;;;3.47;1.50;;;15.40;1.00;;;;;;7395711;19;20006;-70
2023/08/04 04:21:32;;;;;;;5.38;1.40;;;15.40;1.00;;;;;;7392700;19;20038;-71
2023/08/04 04:24:05;;;;;;;3.58;1.25;;;15.40;1.00;;;;;;7395943;19;20010;-70
2023/08/04 04:26:35;;;;;;;5.80;2.30;;;15.50;1.00;;;;;;7398179;19;20470;-71
2023/08/04 04:29:05;;;;;;;3.22;1.73;;;15.50;1.00;;;;;;7395229;19;20014;-71
2023/08/04 04:31:36;;;;;;;5.22;1.88;;;15.70;1.00;;;;;;7395117;19;20404;-71
2023/08/04 04:34:07;;;;;;;4.60;1.60;;;15.80;1.00;;;;;;7397436;19;20027;-71
2023/08/04 04:36:37;;;;;;;3.30;1.50;;;15.80;1.00;;;;;;7395753;19;20467;-71
2023/08/04 04:39:13;;;;;;;3.25;1.30;;;15.90;1.00;;;;;;7395853;19;20021;-70
2023/08/04 04:41:43;;;;;;;3.20;0.90;;;15.80;1.00;;;;;;7394972;19;20019;-69
2023/08/04 04:44:13;;;;;;;2.85;1.08;;;15.80;1.00;;;;;;7392553;19;20021;-72
2023/08/04 04:46:43;;;;;;;3.33;1.35;;;15.80;1.00;;;;;;7396648;19;20014;-70
2023/08/04 04:49:13;;;;;;;2.50;1.30;;;15.80;1.00;;;;;;7391833;19;20351;-70
2023/08/04 04:51:44;;;;;;;3.28;1.40;;;15.80;1.00;;;;;;7389848;19;20024;-70
2023/08/04 04:54:17;;;;;;;3.15;1.40;;;15.90;1.00;;;;;;7392678;19;20024;-70
2023/08/04 04:56:48;;;;;;;2.55;1.40;;;15.80;1.00;;;;;;7392667;19;20086;-70
2023/08/04 04:59:18;;;;;;;4.03;1.58;;;15.90;1.00;;;;;;7391261;19;20020;-70
2023/08/04 05:01:48;;;;;;;2.40;1.25;;;16.20;1.00;;;;;;7388659;19;20500;-70
2023/08/04 05:04:19;;;;;;;2.20;1.20;;;18.90;1.00;;;;;;7391920;19;20034;-70
2023/08/04 05:06:49;;;;;;;3.05;1.20;;;19.70;1.00;;;;;;7392271;19;20478;-70
2023/08/04 05:09:21;;;;;;;4.40;1.85;;;18.10;1.00;;;;;;7391336;19;20466;-70
2023/08/04 05:11:51;;;;;;;3.08;1.20;;;17.30;1.00;;;;;;7389796;19;20019;-70
2023/08/04 05:14:21;;;;;;;5.00;1.58;;;16.90;1.00;;;;;;7391775;19;20019;-70
2023/08/04 05:16:51;;;;;;;2.60;1.42;;;16.70;1.00;;;;;;7391493;19;20018;-69
2023/08/04 05:19:21;;;;;;;2.00;1.00;;;16.60;1.00;;;;;;7391120;19;20014;-70
2023/08/04 05:21:51;;;;;;;4.75;1.35;;;16.50;1.00;;;;;;7391030;19;20018;-70
2023/08/04 05:24:23;;;;;;;2.88;1.20;;;16.70;1.00;;;;;;7390688;19;20027;-70
2023/08/04 05:26:53;;;;;;;2.85;1.13;;;16.50;1.00;;;;;;7391315;19;20010;-70
2023/08/04 05:29:23;;;;;;;4.88;1.50;;;16.50;1.00;;;;;;7391311;19;20398;-70
2023/08/04 05:31:53;;;;;;;2.50;2.30;;;16.40;1.00;;;;;;7389451;19;20339;-70
2023/08/04 05:34:23;;;;;;;3.33;1.42;;;16.50;1.00;;;;;;7390719;19;20033;-70
2023/08/04 05:36:53;;;;;;;3.70;1.73;;;16.50;1.00;;;;;;7390622;19;20017;-70
2023/08/04 05:39:25;;;;;;;5.32;1.52;;;16.70;1.00;;;;;;7390285;19;20475;-70
2023/08/04 05:41:55;;;;;;;4.65;1.70;;;16.70;1.00;;;;;;7390726;19;20085;-70
2023/08/04 05:44:25;;;;;;;5.60;2.03;;;16.70;1.00;;;;;;7389968;19;20014;-70
2023/08/04 05:46:55;;;;;;;2.33;1.50;;;16.70;1.00;;;;;;7394848;19;20014;-70
2023/08/04 05:49:25;;;;;;;3.17;1.50;;;16.70;1.00;;;;;;7386777;19;20350;-69
2023/08/04 05:51:55;;;;;;;3.30;1.27;;;16.70;1.00;;;;;;7387071;19;20081;-70
2023/08/04 05:54:27;;;;;;;3.10;1.17;;;16.60;1.00;;;;;;7389828;19;20527;-71
2023/08/04 05:56:57;;;;;;;3.17;1.25;;;16.50;1.00;;;;;;7389299;19;20539;-70
2023/08/04 05:59:27;;;;;;;2.13;1.08;;;16.60;1.00;;;;;;7389531;19;20010;-70
2023/08/04 06:01:57;;;;;;;3.28;1.15;;;16.70;1.00;;;;;;7389217;19;20014;-71
2023/08/04 06:04:27;;;;;;;1.60;0.82;;;17.10;1.00;;;;;;7389977;19;20023;-70
2023/08/04 06:06:57;;;;;;;4.03;1.00;;;17.10;1.00;;;;;;7390236;19;20029;-71
2023/08/04 06:09:29;;;;;;;3.53;1.20;;;17.10;1.00;;;;;;7389563;19;20018;-70
2023/08/04 06:12:00;;;;;;;3.70;2.20;;;17.00;1.00;;;;;;7387582;19;20019;-70
2023/08/04 06:14:30;;;;;;;2.45;1.50;;;17.00;1.00;;;;;;7389263;19;20010;-70
2023/08/04 06:17:00;;;;;;;1.75;1.20;;;17.30;1.00;;;;;;7389806;19;20014;-71
2023/08/04 06:19:30;;;;;;;5.13;1.45;;;17.30;1.00;;;;;;7387848;19;20019;-70
2023/08/04 06:22:00;;;;;;;2.70;1.02;;;17.30;1.00;;;;;;7389157;19;20082;-70
2023/08/04 06:24:32;;;;;;;2.45;1.15;;;17.30;1.00;;;;;;7388246;19;20377;-69
2023/08/04 06:27:03;;;;;;;4.85;1.25;;;17.40;1.00;;;;;;7387708;19;20082;-71
2023/08/04 06:29:33;;;;;;;3.55;1.60;;;17.40;1.00;;;;;;7388551;19;20078;-71
2023/08/04 06:32:03;;;;;;;2.67;1.23;;;17.40;1.00;;;;;;7391151;19;20090;-72
2023/08/04 06:34:33;;;;;;;2.33;1.13;;;17.40;1.00;;;;;;7387890;19;20348;-69
2023/08/04 06:37:03;;;;;;;2.60;0.88;;;17.40;1.00;;;;;;7389583;19;20074;-69
2023/08/04 06:39:36;;;;;;;3.03;1.00;;;17.50;1.00;;;;;;7387325;19;20015;-70
2023/08/04 06:42:06;;;;;;;2.20;1.20;;;17.60;1.00;;;;;;7388824;19;20018;-70
2023/08/04 06:44:36;;;;;;;1.92;1.20;;;17.60;1.00;;;;;;7387467;19;20490;-70
2023/08/04 06:47:07;;;;;;;4.15;1.52;;;17.50;1.00;;;;;;7392907;19;20019;-69
2023/08/04 06:49:37;;;;;;;4.22;1.30;;;17.30;1.00;;;;;;7385958;19;20022;-71
2023/08/04 06:52:08;;;;;;;1.98;1.02;;;17.50;1.00;;;;;;7387059;19;20077;-69
2023/08/04 06:54:41;;;;;;;4.88;1.20;;;17.60;1.00;;;;;;7385649;19;20089;-70
2023/08/04 06:57:11;;;;;;;8.32;1.17;;;17.60;1.00;;;;;;7387354;19;20082;-69
2023/08/04 06:59:41;;;;;;;2.58;1.33;;;17.50;1.00;;;;;;7386872;19;20022;-70
2023/08/04 07:02:11;;;;;;;6.50;1.80;;;17.60;1.00;;;;;;7388841;19;20099;-70
2023/08/04 07:04:41;;;;;;;1.30;0.80;;;18.10;1.00;;;;;;7387158;19;20019;-70
2023/08/04 07:07:11;;;;;;;2.10;0.80;;;17.90;1.00;;;;;;7388487;19;20461;-69
2023/08/04 07:09:43;;;;;;;3.03;1.10;;;17.90;1.00;;;;;;7386983;19;20382;-71
2023/08/04 07:12:13;;;;;;;2.08;1.17;;;17.90;1.00;;;;;;7387681;19;20489;-69
2023/08/04 07:14:43;;;;;;;2.20;1.05;;;17.80;1.00;;;;;;7385156;19;20015;-69
2023/08/04 07:17:13;;;;;;;2.53;1.30;;;17.60;1.00;;;;;;7387350;19;20015;-71
2023/08/04 07:19:43;;;;;;;6.72;1.27;;;17.70;1.00;;;;;;7386808;19;20037;-70
2023/08/04 07:22:13;;;;;;;3.30;1.15;;;18.40;1.00;;;;;;7386693;19;20070;-69
2023/08/04 07:24:48;;;;;;;7.30;1.45;;;18.50;1.00;;;;;;7387442;19;20042;-70
2023/08/04 07:27:18;;;;;;;2.70;1.40;;;19.20;1.00;;;;;;7387594;19;20026;-70
2023/08/04 07:29:48;;;;;;;7.18;1.75;;;19.50;1.00;;;;;;7385645;19;20018;-70
2023/08/04 07:32:19;;;;;;;2.33;1.15;;;19.80;1.00;;;;;;7386238;19;20946;-71
2023/08/04 07:34:49;;;;;;;2.72;1.10;;;19.50;1.00;;;;;;7385791;19;20074;-70
2023/08/04 07:37:19;;;;;;;1.98;0.90;;;19.40;1.00;;;;;;7386916;19;20014;-69
2023/08/04 07:39:52;;;;;;;1.90;0.90;;;18.80;1.00;;;;;;7384697;19;20065;-70
2023/08/04 07:42:22;;;;;;;2.10;0.90;;;18.90;1.00;;;;;;7385889;19;20090;-69
2023/08/04 07:44:52;;;;;;;3.25;0.90;;;18.80;1.00;;;;;;7384607;19;20701;-70
2023/08/04 07:47:22;;;;;;;2.03;0.88;;;18.60;1.00;;;;;;7390826;19;20070;-69
2023/08/04 07:49:52;;;;;;;6.15;0.80;;;18.00;1.00;;;;;;7385262;19;20013;-68
2023/08/04 07:52:21;;;;;;;2.83;1.00;;;18.20;1.00;;;;;;7386770;19;20017;-71
2023/08/04 07:54:55;;;;;;;1.52;0.80;;;18.80;1.00;;;;;;7385757;19;20089;-69
2023/08/04 07:57:24;;;;;;;2.20;0.70;;;18.50;1.00;;;;;;7389196;19;20461;-70
2023/08/04 07:59:54;;;;;;;1.10;0.70;;;18.50;1.00;;;;;;7386891;19;20078;-71
2023/08/04 08:02:24;;;;;;;2.22;1.00;;;18.70;1.00;;;;;;7389239;19;20508;-70
2023/08/04 08:04:54;;;;;;;2.47;0.93;;;18.80;1.00;;;;;;7388946;19;20466;-70
2023/08/04 08:07:24;;;;;;;2.20;0.80;;;18.70;1.00;;;;;;7388656;19;20017;-69
2023/08/04 08:10:11;;;;;;;3.50;1.00;;;19.00;1.00;;;;;;7387011;19;20026;-68
2023/08/04 08:12:41;;;;;;;1.20;0.75;;;18.80;1.00;;;;;;7393738;19;20018;-69
2023/08/04 08:15:12;;;;;;;3.85;1.63;;;18.80;1.00;;;;;;7396732;19;20019;-71
2023/08/04 08:17:42;;;;;;;1.23;1.00;;;18.80;1.00;;;;;;7396427;19;20013;-70
2023/08/04 08:20:13;;;;;;;7.07;1.80;;;18.50;1.00;;;;;;7394159;19;20022;-70
2023/08/04 08:22:43;;;;;;;3.65;1.42;;;18.40;1.00;;;;;;7397165;19;20050;-71
2023/08/04 08:25:15;;;;;;;3.20;1.00;;;18.80;1.00;;;;;;7396213;19;20475;-70
2023/08/04 08:27:45;;;;;;;23.30;15.65;;;18.50;1.00;;;;;;7397110;19;20532;-70
2023/08/04 08:30:15;;;;;;;1.52;0.90;;;19.30;1.00;;;;;;7393697;19;20077;-69
2023/08/04 08:32:45;;;;;;;2.78;1.20;;;19.10;1.00;;;;;;7390472;19;20023;-69
2023/08/04 08:35:15;;;;;;;2.42;1.42;;;19.40;1.00;;;;;;7393059;19;20031;-70
2023/08/04 08:37:45;;;;;;;2.78;0.90;;;20.30;1.00;;;;;;7391964;19;20006;-70
2023/08/04 08:40:19;;;;;;;2.38;0.90;;;20.60;1.00;;;;;;7390960;19;20537;-70
2023/08/04 08:42:49;;;;;;;2.97;1.00;;;20.60;1.00;;;;;;7393040;19;20345;-69
2023/08/04 08:45:19;;;;;;;2.05;0.77;;;20.80;1.00;;;;;;7391745;19;20011;-69
2023/08/04 08:47:51;;;;;;;2.33;1.00;;;20.70;1.00;;;;;;7392121;19;20036;-70
2023/08/04 08:50:25;;;;;;;2.00;1.13;;;20.70;1.00;;;;;;7390697;19;20026;-69
2023/08/04 08:53:04;;;;;;;2.83;1.13;;;19.70;1.00;;;;;;7391792;19;20037;-71
2023/08/04 08:55:38;;;;;;;2.60;1.20;;;20.10;1.00;;;;;;7391527;19;20422;-69
2023/08/04 08:58:08;;;;;;;1.85;1.02;;;20.60;1.00;;;;;;7390564;19;20366;-69
2023/08/04 09:00:38;;;;;;;3.95;1.10;;;21.20;1.00;;;;;;7391303;19;20518;-71
2023/08/04 09:03:08;;;;;;;2.53;1.00;;;20.40;1.00;;;;;;7391762;19;20027;-70
2023/08/04 09:05:38;;;;;;;2.15;0.90;;;19.80;1.00;;;;;;7391416;19;20027;-69
2023/08/04 09:08:09;;;;;;;1.40;0.77;;;19.40;1.00;;;;;;7389707;19;20544;-70
2023/08/04 09:10:44;;;;;;;3.35;0.88;;;20.40;1.00;;;;;;7391069;19;20073;-70
2023/08/04 09:13:15;;;;;;;1.48;0.70;;;20.50;1.00;;;;;;7391329;19;20010;-70
2023/08/04 09:15:52;;;;;;;0.90;0.60;;;20.40;1.00;;;;;;7395631;19;20006;-71
2023/08/04 09:18:30;;;;;;;2.00;0.80;;;20.30;1.00;;;;;;7393691;19;20813;-71
2023/08/04 09:21:02;;;;;;;2.15;0.70;;;19.80;1.00;;;;;;7391806;19;20164;-70
2023/08/04 09:23:33;;;;;;;1.40;0.80;;;20.20;1.00;;;;;;7391859;19;20042;-69
2023/08/04 09:26:05;;;;;;;2.13;0.60;;;20.20;1.00;;;;;;7395087;19;20014;-69
2023/08/04 09:28:35;;;;;;;1.52;0.60;;;19.90;1.00;;;;;;7389950;19;20046;-69
2023/08/04 09:31:07;;;;;;;2.00;0.60;;;20.50;1.00;;;;;;7390401;19;20023;-69
2023/08/04 09:33:41;;;;;;;2.78;0.60;;;20.00;1.00;;;;;;7388812;19;20014;-70
2023/08/04 09:36:13;;;;;;;1.65;0.60;;;20.00;1.00;;;;;;7394586;19;20052;-68
2023/08/04 09:38:43;;;;;;;1.27;0.60;;;19.80;1.00;;;;;;7393063;19;20043;-70
2023/08/04 09:41:17;;;;;;;1.90;0.52;;;19.90;1.00;;;;;;7390781;19;20027;-70
2023/08/04 09:43:48;;;;;;;;;;;19.90;1.00;;;;;;7394019;19;20014;-70
2023/08/04 09:46:19;;;;;;;0.82;0.50;;;20.10;1.00;;;;;;7391175;19;19915;-70
2023/08/04 09:48:50;;;;;;;1.35;0.80;;;20.10;1.00;;;;;;7393184;19;20014;-70
2023/08/04 09:51:21;;;;;;;2.40;0.90;;;20.40;1.00;;;;;;7389924;19;20010;-70
2023/08/04 09:53:54;;;;;;;2.10;0.70;;;20.70;1.00;;;;;;7392409;19;20470;-70
2023/08/04 09:56:28;;;;;;;1.13;0.55;;;20.70;1.00;;;;;;7393496;19;20569;-70
2023/08/04 09:59:00;;;;;;;0.82;0.52;;;20.40;1.00;;;;;;7390689;19;20042;-72
2023/08/04 10:01:31;;;;;;;2.22;0.90;;;20.80;1.00;;;;;;7389742;19;20095;-70
2023/08/04 10:04:02;;;;;;;2.28;0.60;;;20.80;1.00;;;;;;7391614;19;20014;-70
2023/08/04 10:06:33;;;;;;;1.88;0.63;;;20.50;1.00;;;;;;7392930;19;20053;-70
2023/08/04 10:09:04;;;;;;;2.90;0.98;;;20.60;1.00;;;;;;7391824;19;20981;-70
2023/08/04 10:11:45;;;;;;;2.08;0.68;;;20.70;1.00;;;;;;7389740;19;20486;-70
2023/08/04 10:14:15;;;;;;;1.75;0.77;;;20.80;1.00;;;;;;7391256;19;20010;-69
2023/08/04 10:16:46;;;;;;;1.30;0.70;;;21.00;1.00;;;;;;7393568;19;20027;-69
2023/08/04 10:19:19;;;;;;;2.95;0.50;;;20.50;1.00;;;;;;7391526;19;20014;-70
2023/08/04 10:21:49;;;;;;;0.80;0.47;;;20.40;1.00;;;;;;7388746;19;20027;-69
2023/08/04 10:24:22;;;;;;;3.42;0.80;;;20.80;1.00;;;;;;7391453;19;20011;-70
2023/08/04 10:26:55;;;;;;;1.90;0.75;;;21.20;1.00;;;;;;7392388;19;20011;-70
2023/08/04 10:29:33;;;;;;;1.92;0.60;;;21.00;1.00;;;;;;7392791;19;20141;-70
2023/08/04 10:32:07;;;;;;;1.23;0.50;;;20.90;1.00;;;;;;7390538;19;20018;-69
2023/08/04 10:34:38;;;;;;;;;;;20.80;1.00;;;;;;7388443;19;20026;-70
2023/08/04 10:37:10;;;;;;;1.15;0.68;;;20.90;1.00;;;;;;7392555;19;20335;-68
2023/08/04 10:39:41;;;;;;;1.25;0.60;;;20.70;1.00;;;;;;7391933;19;20014;-70
2023/08/04 10:42:26;;;;;;;1.40;0.65;;;21.20;1.00;;;;;;7389977;19;20346;-70
2023/08/04 10:44:58;;;;;;;0.98;0.80;;;20.80;1.00;;;;;;7391049;19;20015;-70
2023/08/04 10:47:32;;;;;;;4.03;0.90;;;20.80;1.00;;;;;;7390448;19;20011;-70
2023/08/04 10:50:05;;;;;;;2.60;0.73;;;21.10;1.00;;;;;;7389336;19;20023;-69
2023/08/04 10:52:36;;;;;;;1.70;0.65;;;20.70;1.00;;;;;;7390490;19;20014;-70
2023/08/04 10:55:08;;;;;;;1.08;0.45;;;20.80;1.00;;;;;;7389626;19;20011;-70
2023/08/04 10:57:42;;;;;;;2.25;0.63;;;20.70;1.00;;;;;;7391842;19;20033;-70
2023/08/04 11:00:14;;;;;;;1.77;0.50;;;20.80;1.00;;;;;;7390947;19;20093;-69
2023/08/04 11:02:44;;;;;;;1.02;0.52;;;20.20;1.00;;;;;;7390307;19;20015;-69
2023/08/04 11:05:14;;;;;;;1.30;0.73;;;20.60;1.00;;;;;;7390745;19;20025;-69
2023/08/04 11:07:48;;;;;;;1.00;0.50;;;20.20;1.00;;;;;;7390974;19;20089;-69
2023/08/04 11:10:19;;;;;;;3.25;0.80;;;20.30;1.00;;;;;;7389834;19;20501;-68
2023/08/04 11:12:55;;;;;;;5.72;0.82;;;20.20;1.00;;;;;;7390417;19;20347;-69
2023/08/04 11:15:25;;;;;;;3.33;0.82;;;20.30;1.00;;;;;;7389991;19;20031;-69
2023/08/04 11:17:55;;;;;;;3.85;0.68;;;20.20;1.00;;;;;;7390202;19;20086;-69
2023/08/04 11:20:25;;;;;;;1.70;0.68;;;19.80;1.00;;;;;;7389749;19;20014;-69
2023/08/04 11:23:02;;;;;;;1.33;0.60;;;19.80;1.00;;;;;;7387954;19;20014;-69
2023/08/04 11:25:35;;;;;;;1.63;0.70;;;19.50;1.00;;;;;;7388281;19;20006;-69
2023/08/04 11:28:08;;;;;;;1.25;0.80;;;19.60;1.00;;;;;;7389634;19;20011;-69
2023/08/04 11:30:39;;;;;;;1.13;0.60;;;19.70;1.00;;;;;;7388995;19;20580;-69
2023/08/04 11:33:10;;;;;;;0.93;0.65;;;19.50;1.00;;;;;;7386079;19;20467;-68
2023/08/04 11:35:41;;;;;;;1.13;0.70;;;19.60;1.00;;;;;;7385781;19;20102;-69
2023/08/04 11:38:11;;;;;;;2.20;0.60;;;19.70;1.00;;;;;;7385983;19;20011;-69
2023/08/04 11:40:57;;;;;;;2.85;0.60;;;19.60;1.00;;;;;;7385436;19;20488;-69
2023/08/04 11:43:32;;;;;;;1.92;0.68;;;19.90;1.00;;;;;;7386056;19;20031;-69
2023/08/04 11:46:06;;;;;;;2.88;0.70;;;19.70;1.00;;;;;;7388241;19;20119;-70
2023/08/04 11:48:37;;;;;;;2.58;0.80;;;19.30;1.00;;;;;;7394104;19;20053;-69
2023/08/04 11:51:08;;;;;;;2.28;0.60;;;19.70;1.00;;;;;;7391981;19;20032;-70
2023/08/04 11:53:39;;;;;;;1.90;0.68;;;19.80;1.00;;;;;;7393357;19;20102;-71
2023/08/04 11:56:09;;;;;;;0.93;0.60;;;20.00;1.00;;;;;;7392349;19;20028;-70
2023/08/04 11:59:11;;;;;;;1.85;0.65;;;19.70;1.00;;;;;;7393376;19;20044;-70
2023/08/04 12:01:41;;;;;;;3.80;1.10;;;19.90;1.00;;;;;;7390965;19;20017;-69
2023/08/04 12:04:31;;;;;;;0.70;0.60;;;20.30;1.00;;;;;;7392318;19;20029;-70
2023/08/04 12:07:02;;;;;;;1.77;0.80;;;20.50;1.00;;;;;;7391946;19;20029;-71
2023/08/04 12:09:32;;;;;;;1.63;0.68;;;20.90;1.00;;;;;;7393025;19;20454;-70
2023/08/04 12:12:03;;;;;;;2.22;0.90;;;20.20;1.00;;;;;;7394370;19;20359;-71
2023/08/04 12:14:36;;;;;;;2.42;0.77;;;20.60;1.00;;;;;;7391444;19;20035;-71
2023/08/04 12:17:37;;;;;;;2.55;0.65;;;20.80;1.00;;;;;;7393468;19;20018;-71
2023/08/04 12:20:12;;;;;;;1.17;0.80;;;21.00;1.00;;;;;;7392137;19;20541;-70
2023/08/04 12:22:42;;;;;;;;;;;21.00;1.00;;;;;;7397384;19;20450;-69
2023/08/04 12:25:13;;;;;;;1.42;0.63;;;20.90;1.00;;;;;;7391428;19;19928;-71
2023/08/04 12:27:43;;;;;;;1.40;0.70;;;20.80;1.00;;;;;;7392507;19;20019;-70
2023/08/04 12:30:16;;;;;;;1.40;0.63;;;20.80;1.00;;;;;;7391708;19;20098;-70
2023/08/04 12:32:46;;;;;;;2.30;0.52;;;20.50;1.00;;;;;;7396536;19;20427;-70
2023/08/04 12:35:16;;;;;;;2.70;0.68;;;20.20;1.00;;;;;;7391349;19;20022;-70
2023/08/04 12:37:46;;;;;;;0.95;0.50;;;20.30;1.00;;;;;;7392527;19;20601;-70
2023/08/04 12:40:16;;;;;;;2.33;0.80;;;20.90;1.00;;;;;;7390235;19;20490;-70
2023/08/04 12:42:46;;;;;;;2.15;1.00;;;20.80;1.00;;;;;;7395118;19;20070;-70
2023/08/04 12:45:18;;;;;;;1.10;0.68;;;20.60;1.00;;;;;;7391390;19;20035;-70
2023/08/04 12:47:48;;;;;;;1.35;0.60;;;20.70;1.00;;;;;;7392594;19;20018;-70
2023/08/04 12:50:18;;;;;;;1.20;1.10;;;20.40;1.00;;;;;;7391050;19;20029;-69
2023/08/04 12:52:48;;;;;;;1.48;0.73;;;21.20;1.00;;;;;;7394638;19;20014;-68
2023/08/04 12:55:18;;;;;;;2.55;0.98;;;20.70;1.00;;;;;;7385872;19;20022;-70
2023/08/04 12:57:48;;;;;;;2.40;1.10;;;20.30;1.00;;;;;;7390784;19;20014;-69
2023/08/04 13:00:21;;;;;;;1.40;0.90;;;20.40;1.00;;;;;;7387566;19;20415;-69
2023/08/04 13:02:51;;;;;;;2.17;0.90;;;20.40;1.00;;;;;;7391692;19;20080;-69
2023/08/04 13:05:21;;;;;;;1.33;0.85;;;20.60;1.00;;;;;;7391021;19;20021;-68
2023/08/04 13:07:51;;;;;;;1.08;0.80;;;20.40;1.00;;;;;;7387986;19;20526;-69
2023/08/04 13:10:21;;;;;;;1.60;0.90;;;20.80;1.00;;;;;;7387653;19;20086;-70
2023/08/04 13:12:51;;;;;;;2.83;0.70;;;21.50;1.00;;;;;;7394177;19;20078;-69
2023/08/04 13:15:24;;;;;;;0.88;0.73;;;22.00;1.00;;;;;;7387195;19;20018;-69
2023/08/04 13:17:54;;;;;;;0.80;0.70;;;21.20;1.00;;;;;;7385088;19;20022;-69
2023/08/04 13:20:25;;;;;;;1.55;0.70;;;21.20;1.00;;;;;;7390144;19;20021;-69